createdAt,value
2018-10-18T00:02:25.400Z,93.10
2018-10-18T00:04:54.913Z,93.10
2018-10-18T00:07:23.273Z,93.10
2018-10-18T00:09:51.593Z,93.40
2018-10-18T00:12:19.877Z,93.00
2018-10-18T00:14:48.180Z,92.90
2018-10-18T00:17:21.724Z,92.90
2018-10-18T00:19:50.029Z,92.90
2018-10-18T00:22:18.308Z,93.00
2018-10-18T00:24:46.634Z,93.10
2018-10-18T00:27:14.934Z,93.10
2018-10-18T00:29:43.209Z,93.30
2018-10-18T00:32:11.560Z,93.40
2018-10-18T00:34:40.057Z,93.50
2018-10-18T00:37:08.382Z,93.50
2018-10-18T00:39:36.680Z,93.50
2018-10-18T00:42:05.217Z,93.40
2018-10-18T00:44:33.536Z,93.50
2018-10-18T00:47:01.826Z,93.40
2018-10-18T00:49:30.144Z,93.80
2018-10-18T00:51:58.421Z,93.50
2018-10-18T00:54:26.741Z,93.40
2018-10-18T00:56:55.048Z,93.60
2018-10-18T00:59:23.330Z,93.60
2018-10-18T01:01:51.672Z,93.60
2018-10-18T01:04:20.070Z,93.70
2018-10-18T01:06:48.694Z,93.70
2018-10-18T01:09:16.977Z,93.80
2018-10-18T01:11:45.289Z,93.80
2018-10-18T01:14:13.682Z,93.80
2018-10-18T01:16:41.943Z,93.80
2018-10-18T01:19:10.274Z,93.90
2018-10-18T01:21:38.564Z,93.80
2018-10-18T01:24:06.947Z,93.80
2018-10-18T01:26:35.212Z,93.80
2018-10-18T01:29:03.512Z,93.90
2018-10-18T01:31:31.865Z,93.90
2018-10-18T01:34:00.245Z,93.90
2018-10-18T01:36:28.541Z,93.90
2018-10-18T01:38:56.838Z,93.90
2018-10-18T01:41:25.137Z,94.00
2018-10-18T01:43:53.416Z,94.00
2018-10-18T01:46:21.729Z,94.00
2018-10-18T01:48:50.023Z,93.90
2018-10-18T01:51:18.302Z,94.10
2018-10-18T01:53:46.618Z,94.40
2018-10-18T01:56:15.056Z,94.40
2018-10-18T01:58:43.282Z,94.60
2018-10-18T02:01:11.593Z,94.60
2018-10-18T02:03:39.973Z,94.80
2018-10-18T02:06:08.429Z,94.80
2018-10-18T02:08:36.741Z,94.90
2018-10-18T02:11:05.733Z,94.90
2018-10-18T02:13:34.099Z,95.00
2018-10-18T02:16:02.354Z,95.20
2018-10-18T02:18:31.482Z,95.30
2018-10-18T02:21:00.403Z,95.80
2018-10-18T02:23:28.860Z,95.60
2018-10-18T02:25:57.133Z,95.80
2018-10-18T02:28:25.721Z,95.80
2018-10-18T02:30:53.991Z,95.80
2018-10-18T02:33:22.289Z,96.00
2018-10-18T02:35:50.654Z,96.10
2018-10-18T02:38:18.931Z,96.10
2018-10-18T02:40:47.200Z,96.10
2018-10-18T02:43:15.620Z,96.20
2018-10-18T02:45:43.904Z,96.30
2018-10-18T02:48:12.258Z,96.30
2018-10-18T02:50:40.525Z,96.40
2018-10-18T02:53:08.830Z,96.50
2018-10-18T02:55:37.260Z,96.50
2018-10-18T02:58:05.765Z,96.60
2018-10-18T03:00:34.063Z,96.70
2018-10-18T03:03:02.382Z,97.00
2018-10-18T03:05:30.697Z,97.10
2018-10-18T03:07:58.964Z,97.10
2018-10-18T03:10:27.238Z,97.10
2018-10-18T03:12:55.520Z,97.20
2018-10-18T03:15:23.792Z,97.20
2018-10-18T03:17:52.064Z,97.70
2018-10-18T03:20:20.347Z,97.40
2018-10-18T03:22:48.649Z,97.60
2018-10-18T03:25:16.974Z,97.60
2018-10-18T03:27:45.228Z,97.70
2018-10-18T03:30:13.598Z,97.80
2018-10-18T03:32:41.785Z,97.80
2018-10-18T03:35:10.253Z,97.80
2018-10-18T03:37:38.921Z,97.90
2018-10-18T03:40:07.794Z,97.90
2018-10-18T03:42:36.054Z,98.00
2018-10-18T03:45:04.696Z,98.10
2018-10-18T03:47:32.941Z,98.20
2018-10-18T03:50:01.182Z,98.40
2018-10-18T03:52:29.452Z,98.40
2018-10-18T03:54:58.107Z,98.40
2018-10-18T03:57:26.482Z,98.50
2018-10-18T03:59:54.774Z,98.40
2018-10-18T04:02:23.001Z,98.40
2018-10-18T04:04:51.290Z,98.40
2018-10-18T04:07:19.515Z,98.50
2018-10-18T04:09:47.761Z,98.60
2018-10-18T04:12:16.071Z,98.80
2018-10-18T04:14:44.341Z,98.90
2018-10-18T04:17:12.737Z,98.90
2018-10-18T04:19:41.046Z,98.90
2018-10-18T04:22:09.364Z,99.10
2018-10-18T04:27:28.297Z,99.20
2018-10-18T04:29:56.584Z,99.10
2018-10-18T04:32:24.856Z,99.20
2018-10-18T04:34:53.312Z,99.20
2018-10-18T04:37:21.628Z,99.20
2018-10-18T04:39:49.846Z,99.20
2018-10-18T04:42:18.197Z,99.40
2018-10-18T04:44:46.408Z,99.40
2018-10-18T04:47:14.739Z,99.50
2018-10-18T04:49:42.939Z,99.50
2018-10-18T04:52:11.452Z,99.40
2018-10-18T04:54:39.734Z,99.50
2018-10-18T04:57:08.024Z,99.50
2018-10-18T04:59:36.260Z,99.50
2018-10-18T05:02:04.785Z,99.60
2018-10-18T05:04:33.488Z,99.60
2018-10-18T05:07:01.751Z,99.70
2018-10-18T05:09:30.040Z,99.90
2018-10-18T05:11:58.317Z,99.90
2018-10-18T05:14:26.564Z,99.80
2018-10-18T05:16:54.864Z,99.60
2018-10-18T05:19:23.119Z,99.40
2018-10-18T05:21:51.421Z,99.20
2018-10-18T05:24:19.710Z,99.10
2018-10-18T05:26:47.985Z,99.20
2018-10-18T05:29:16.288Z,99.10
2018-10-18T05:31:44.614Z,99.10
2018-10-18T05:34:12.992Z,99.20
2018-10-18T05:36:41.490Z,99.20
2018-10-18T05:39:11.392Z,99.70
2018-10-18T05:41:39.908Z,99.50
2018-10-18T05:44:08.302Z,99.40
2018-10-18T05:46:36.608Z,99.50
2018-10-18T05:49:05.088Z,99.40
2018-10-18T05:51:33.289Z,99.50
2018-10-18T05:54:01.821Z,99.60
2018-10-18T05:56:29.873Z,99.60
2018-10-18T05:58:58.157Z,99.60
2018-10-18T06:01:26.410Z,99.70
2018-10-18T06:03:54.782Z,99.70
2018-10-18T06:06:23.041Z,99.50
2018-10-18T06:08:51.296Z,99.50
2018-10-18T06:11:26.725Z,99.60
2018-10-18T06:13:55.866Z,99.50
2018-10-18T06:16:25.470Z,99.60
2018-10-18T06:18:53.755Z,99.60
2018-10-18T06:21:22.793Z,99.50
2018-10-18T06:23:51.096Z,99.60
2018-10-18T06:26:19.961Z,99.60
2018-10-18T06:28:48.915Z,99.50
2018-10-18T06:31:17.704Z,99.50
2018-10-18T06:33:46.421Z,99.60
2018-10-18T06:36:14.734Z,99.50
2018-10-18T06:38:43.067Z,99.50
2018-10-18T06:41:11.421Z,99.60
2018-10-18T06:43:41.013Z,99.50
2018-10-18T06:46:11.291Z,99.60
2018-10-18T06:48:40.096Z,99.60
2018-10-18T06:51:08.672Z,99.60
2018-10-18T06:53:38.488Z,99.50
2018-10-18T06:56:09.147Z,99.50
2018-10-18T06:58:38.219Z,99.50
2018-10-18T07:01:06.718Z,99.60
2018-10-18T07:03:36.253Z,99.70
2018-10-18T07:06:05.071Z,99.70
2018-10-18T07:08:33.373Z,99.80
2018-10-18T07:11:02.229Z,99.80
2018-10-18T07:13:30.744Z,99.80
2018-10-18T07:15:59.037Z,99.80
2018-10-18T07:18:27.294Z,99.90
2018-10-18T07:20:55.615Z,99.80
2018-10-18T07:23:23.944Z,99.90
2018-10-18T07:25:52.243Z,99.90
2018-10-18T07:28:20.574Z,99.80
2018-10-18T07:30:48.867Z,99.70
2018-10-18T07:33:17.115Z,99.70
2018-10-18T07:35:45.432Z,99.90
2018-10-18T07:38:13.749Z,99.90
2018-10-18T07:40:42.000Z,99.90
2018-10-18T07:43:10.349Z,99.90
2018-10-18T07:45:38.625Z,99.90
2018-10-18T07:48:07.215Z,99.90
2018-10-18T07:50:35.395Z,99.90
2018-10-18T07:53:03.788Z,99.90
2018-10-18T07:55:32.148Z,99.90
2018-10-18T07:58:00.436Z,99.90
2018-10-18T08:00:28.854Z,99.90
2018-10-18T08:02:57.045Z,99.90
2018-10-18T08:05:25.329Z,99.90
2018-10-18T08:07:53.661Z,99.90
2018-10-18T08:10:21.877Z,99.90
2018-10-18T08:12:50.197Z,99.90
2018-10-18T08:15:18.469Z,99.90
2018-10-18T08:17:46.828Z,99.90
2018-10-18T08:20:15.447Z,99.90
2018-10-18T08:22:44.207Z,99.90
2018-10-18T08:25:12.777Z,99.90
2018-10-18T08:27:40.989Z,99.90
2018-10-18T08:30:11.466Z,99.90
2018-10-18T08:32:39.821Z,99.90
2018-10-18T08:35:09.122Z,99.90
2018-10-18T08:37:37.508Z,99.90
2018-10-18T08:40:06.572Z,99.90
2018-10-18T08:42:34.873Z,99.90
2018-10-18T08:45:03.150Z,99.90
2018-10-18T08:47:31.632Z,99.90
2018-10-18T08:50:00.090Z,99.90
2018-10-18T08:52:28.204Z,99.90
2018-10-18T08:54:56.657Z,99.90
2018-10-18T08:57:24.944Z,99.90
2018-10-18T08:59:53.249Z,99.90
2018-10-18T09:02:21.513Z,99.90
2018-10-18T09:04:49.790Z,99.90
2018-10-18T09:07:18.111Z,99.90
2018-10-18T09:09:46.377Z,99.90
2018-10-18T09:12:14.672Z,99.90
2018-10-18T09:14:42.981Z,99.90
2018-10-18T09:17:11.270Z,99.90
2018-10-18T09:19:39.589Z,99.90
2018-10-18T09:22:07.837Z,99.90
2018-10-18T09:24:36.196Z,99.90
2018-10-18T09:27:04.533Z,99.60
2018-10-18T09:29:32.816Z,99.40
2018-10-18T09:32:01.085Z,99.20
2018-10-18T09:34:29.388Z,99.10
2018-10-18T09:36:57.720Z,98.90
2018-10-18T09:39:25.962Z,98.80
2018-10-18T09:41:54.253Z,98.90
2018-10-18T09:44:22.567Z,98.90
2018-10-18T09:46:50.789Z,98.80
2018-10-18T09:49:19.065Z,98.70
2018-10-18T09:51:47.316Z,98.60
2018-10-18T09:54:15.764Z,98.50
2018-10-18T09:56:44.014Z,98.40
2018-10-18T09:59:12.280Z,98.40
2018-10-18T10:01:46.025Z,98.50
2018-10-18T10:04:14.332Z,98.30
2018-10-18T10:06:42.578Z,98.30
2018-10-18T10:09:10.861Z,98.20
2018-10-18T10:11:39.235Z,98.10
2018-10-18T10:14:07.604Z,97.90
2018-10-18T10:16:35.961Z,97.60
2018-10-18T10:19:04.408Z,97.40
2018-10-18T10:21:32.545Z,96.90
2018-10-18T10:24:00.813Z,96.90
2018-10-18T10:26:29.089Z,96.90
2018-10-18T10:28:57.686Z,96.90
2018-10-18T10:31:25.957Z,96.80
2018-10-18T10:33:54.245Z,96.70
2018-10-18T10:36:22.524Z,96.40
2018-10-18T10:38:50.796Z,96.20
2018-10-18T10:41:19.132Z,95.80
2018-10-18T10:43:47.583Z,95.50
2018-10-18T10:46:15.969Z,95.30
2018-10-18T10:48:44.149Z,95.30
2018-10-18T10:51:12.599Z,94.80
2018-10-18T10:53:40.757Z,94.40
2018-10-18T10:56:09.053Z,94.20
2018-10-18T10:58:37.330Z,94.00
2018-10-18T11:01:08.689Z,93.70
2018-10-18T11:03:37.668Z,93.40
2018-10-18T11:06:05.965Z,93.00
2018-10-18T11:08:34.715Z,92.30
2018-10-18T11:11:06.153Z,91.60
2018-10-18T11:13:34.503Z,91.50
2018-10-18T11:16:03.819Z,91.50
2018-10-18T11:18:33.360Z,91.70
2018-10-18T11:21:02.606Z,91.60
2018-10-18T11:23:31.116Z,91.40
2018-10-18T11:25:59.442Z,91.40
2018-10-18T11:28:27.800Z,91.00
2018-10-18T11:30:56.048Z,91.10
2018-10-18T11:33:24.328Z,90.60
2018-10-18T11:35:52.675Z,90.90
2018-10-18T11:38:20.890Z,90.90
2018-10-18T11:40:49.205Z,91.10
2018-10-18T11:43:17.534Z,91.30
2018-10-18T11:45:45.776Z,91.40
2018-10-18T11:48:14.705Z,91.70
2018-10-18T11:50:43.188Z,91.90
2018-10-18T11:53:11.448Z,92.10
2018-10-18T11:55:39.708Z,92.20
2018-10-18T11:58:08.948Z,92.10
2018-10-18T12:00:37.208Z,92.30
2018-10-18T12:03:05.865Z,92.50
2018-10-18T12:05:34.247Z,92.50
2018-10-18T12:08:02.601Z,92.60
2018-10-18T12:10:30.925Z,92.50
2018-10-18T12:12:59.194Z,92.30
2018-10-18T12:15:27.465Z,92.10
2018-10-18T12:17:55.748Z,92.00
2018-10-18T12:20:24.054Z,92.00
2018-10-18T12:22:52.294Z,91.80
2018-10-18T12:25:20.547Z,91.70
2018-10-18T12:27:48.781Z,91.70
2018-10-18T12:30:16.988Z,91.70
2018-10-18T12:32:45.266Z,91.70
2018-10-18T12:35:13.631Z,91.50
2018-10-18T12:37:42.171Z,91.20
2018-10-18T12:40:10.594Z,91.20
2018-10-18T12:42:40.696Z,90.90
2018-10-18T12:45:10.116Z,90.50
2018-10-18T12:47:38.395Z,90.10
2018-10-18T12:50:06.937Z,90.00
2018-10-18T12:52:35.184Z,89.40
2018-10-18T12:55:03.511Z,88.80
2018-10-18T12:57:32.305Z,87.60
2018-10-18T13:00:00.564Z,86.90
2018-10-18T13:02:28.927Z,86.30
2018-10-18T13:04:57.200Z,85.80
2018-10-18T13:07:25.494Z,85.70
2018-10-18T13:09:53.728Z,85.10
2018-10-18T13:12:22.039Z,84.90
2018-10-18T13:14:50.245Z,84.60
2018-10-18T13:17:18.537Z,84.50
2018-10-18T13:19:46.830Z,84.00
2018-10-18T13:22:15.053Z,84.00
2018-10-18T13:24:43.421Z,83.90
2018-10-18T13:27:11.684Z,83.80
2018-10-18T13:29:39.942Z,83.90
2018-10-18T13:32:08.307Z,86.30
2018-10-18T13:34:37.225Z,88.00
2018-10-18T13:37:05.836Z,86.00
2018-10-18T13:39:34.103Z,83.70
2018-10-18T13:42:02.411Z,73.50
2018-10-18T13:44:30.626Z,63.30
2018-10-18T13:46:58.888Z,56.20
2018-10-18T13:49:27.488Z,50.40
2018-10-18T13:51:55.688Z,47.10
2018-10-18T13:54:23.957Z,43.50
2018-10-18T13:56:52.220Z,40.10
2018-10-18T13:59:32.033Z,36.00
2018-10-18T14:02:00.230Z,34.90
2018-10-18T14:04:28.591Z,36.00
2018-10-18T14:06:57.035Z,37.50
2018-10-18T14:09:25.264Z,39.90
2018-10-18T14:11:53.512Z,41.80
2018-10-18T14:14:21.761Z,43.40
2018-10-18T14:16:50.041Z,44.90
2018-10-18T14:19:18.304Z,46.00
2018-10-18T14:21:46.572Z,47.40
2018-10-18T14:24:14.876Z,48.60
2018-10-18T14:26:43.245Z,49.50
2018-10-18T14:29:11.611Z,50.20
2018-10-18T14:31:39.753Z,50.90
2018-10-18T14:34:08.612Z,51.20
2018-10-18T14:36:36.909Z,51.80
2018-10-18T14:39:07.248Z,52.20
2018-10-18T14:41:35.600Z,52.20
2018-10-18T14:44:04.024Z,52.40
2018-10-18T14:46:32.171Z,52.60
2018-10-18T14:49:00.473Z,53.10
2018-10-18T14:51:28.692Z,53.40
2018-10-18T14:53:56.941Z,53.40
2018-10-18T14:56:25.301Z,53.70
2018-10-18T14:58:53.590Z,54.00
2018-10-18T15:01:21.791Z,54.20
2018-10-18T15:03:50.128Z,54.50
2018-10-18T15:06:18.364Z,54.50
2018-10-18T15:08:46.604Z,54.50
2018-10-18T15:11:15.002Z,54.90
2018-10-18T15:13:43.187Z,55.20
2018-10-18T15:16:11.469Z,55.20
2018-10-18T15:18:39.725Z,55.50
2018-10-18T15:21:08.063Z,55.80
2018-10-18T15:23:36.294Z,55.70
2018-10-18T15:26:05.096Z,55.80
2018-10-18T15:28:33.304Z,56.00
2018-10-18T15:31:01.564Z,56.40
2018-10-18T15:33:30.032Z,56.40
2018-10-18T15:35:58.301Z,56.50
2018-10-18T15:38:26.544Z,56.80
2018-10-18T15:40:54.850Z,57.00
2018-10-18T15:43:23.149Z,57.30
2018-10-18T15:45:51.405Z,57.40
2018-10-18T15:48:19.641Z,57.20
2018-10-18T15:50:47.874Z,57.50
2018-10-18T15:53:16.341Z,57.80
2018-10-18T15:55:44.576Z,58.10
2018-10-18T15:58:12.972Z,58.30
2018-10-18T16:00:41.261Z,58.70
2018-10-18T16:03:09.545Z,58.90
2018-10-18T16:05:37.846Z,59.30
2018-10-18T16:08:06.055Z,60.20
2018-10-18T16:10:34.326Z,60.00
2018-10-18T16:13:02.577Z,60.70
2018-10-18T16:15:30.820Z,61.20
2018-10-18T16:17:59.155Z,61.50
2018-10-18T16:20:27.352Z,61.80
2018-10-18T16:22:55.640Z,62.00
2018-10-18T16:25:24.047Z,62.30
2018-10-18T16:27:52.338Z,62.80
2018-10-18T16:30:20.616Z,63.10
2018-10-18T16:32:48.876Z,63.80
2018-10-18T16:35:17.230Z,64.50
2018-10-18T16:37:45.416Z,65.00
2018-10-18T16:40:13.714Z,65.40
2018-10-18T16:42:42.225Z,65.80
2018-10-18T16:45:12.590Z,66.30
2018-10-18T16:47:40.926Z,67.00
2018-10-18T16:50:09.341Z,67.30
2018-10-18T16:52:37.726Z,67.70
2018-10-18T16:55:06.456Z,68.10
2018-10-18T16:57:34.822Z,68.40
2018-10-18T17:00:03.319Z,68.70
2018-10-18T17:02:31.524Z,69.30
2018-10-18T17:04:59.780Z,69.60
2018-10-18T17:07:28.035Z,69.80
2018-10-18T17:09:56.606Z,70.20
2018-10-18T17:12:24.849Z,70.50
2018-10-18T17:14:53.092Z,70.80
2018-10-18T17:17:21.383Z,71.20
2018-10-18T17:19:49.610Z,71.40
2018-10-18T17:22:17.957Z,71.60
2018-10-18T17:24:46.388Z,71.50
2018-10-18T17:27:14.762Z,71.50
2018-10-18T17:29:43.035Z,71.50
2018-10-18T17:32:11.425Z,71.70
2018-10-18T17:34:39.661Z,71.30
2018-10-18T17:37:07.911Z,71.60
2018-10-18T17:39:36.143Z,71.60
2018-10-18T17:42:04.678Z,71.70
2018-10-18T17:44:32.823Z,71.70
2018-10-18T17:47:01.082Z,71.70
2018-10-18T17:49:29.313Z,71.80
2018-10-18T17:51:57.613Z,71.80
2018-10-18T17:54:26.129Z,71.80
2018-10-18T17:56:54.353Z,71.80
2018-10-18T17:59:22.587Z,71.90
2018-10-18T18:01:50.857Z,71.90
2018-10-18T18:04:19.103Z,71.80
2018-10-18T18:06:47.440Z,71.70
2018-10-18T18:09:15.688Z,71.80
2018-10-18T18:11:43.939Z,71.90
2018-10-18T18:14:12.228Z,72.00
2018-10-18T18:16:40.465Z,72.30
2018-10-18T18:19:08.697Z,72.60
2018-10-18T18:21:36.983Z,72.80
2018-10-18T18:24:05.472Z,73.00
2018-10-18T18:29:25.196Z,73.10
2018-10-18T18:31:53.743Z,73.10
2018-10-18T18:34:22.092Z,73.00
2018-10-18T18:36:50.522Z,73.10
2018-10-18T18:39:19.454Z,72.80
2018-10-18T18:41:48.159Z,72.90
2018-10-18T18:44:16.974Z,72.80
2018-10-18T18:46:45.444Z,72.90
2018-10-18T18:49:14.310Z,72.90
2018-10-18T18:51:42.592Z,73.30
2018-10-18T18:54:11.200Z,73.40
2018-10-18T18:56:39.520Z,73.50
2018-10-18T18:59:08.079Z,73.80
2018-10-18T19:01:36.370Z,73.90
2018-10-18T19:04:04.941Z,74.00
2018-10-18T19:06:33.213Z,74.30
2018-10-18T19:09:01.633Z,74.60
2018-10-18T19:11:30.015Z,74.70
2018-10-18T19:13:58.445Z,75.00
2018-10-18T19:16:27.040Z,75.30
2018-10-18T19:18:55.639Z,75.60
2018-10-18T19:21:24.060Z,76.00
2018-10-18T19:23:52.458Z,76.30
2018-10-18T19:26:20.978Z,76.70
2018-10-18T19:28:49.711Z,76.90
2018-10-18T19:31:18.315Z,77.10
2018-10-18T19:33:46.705Z,77.10
2018-10-18T19:36:14.977Z,77.30
2018-10-18T19:38:43.806Z,77.50
2018-10-18T19:41:12.335Z,77.70
2018-10-18T19:43:41.093Z,77.80
2018-10-18T19:46:09.412Z,78.10
2018-10-18T19:48:38.404Z,78.20
2018-10-18T19:51:06.824Z,78.40
2018-10-18T19:53:35.172Z,78.50
2018-10-18T19:56:03.898Z,78.70
2018-10-18T19:58:32.487Z,78.90
2018-10-18T20:01:00.856Z,79.00
2018-10-18T20:03:29.582Z,79.80
2018-10-18T20:05:58.536Z,79.20
2018-10-18T20:08:27.316Z,79.20
2018-10-18T20:10:56.035Z,79.20
2018-10-18T20:13:24.446Z,79.30
2018-10-18T20:15:52.832Z,79.30
2018-10-18T20:18:21.140Z,79.50
2018-10-18T20:20:49.392Z,79.70
2018-10-18T20:23:17.697Z,79.50
2018-10-18T20:25:46.190Z,79.80
2018-10-18T20:28:14.387Z,80.00
2018-10-18T20:30:42.610Z,80.30
2018-10-18T20:33:10.900Z,80.20
2018-10-18T20:35:39.217Z,80.40
2018-10-18T20:40:57.781Z,80.50
2018-10-18T20:43:26.241Z,80.30
2018-10-18T20:45:54.494Z,80.60
2018-10-18T20:48:22.760Z,81.10
2018-10-18T20:50:50.973Z,81.50
2018-10-18T20:53:19.217Z,81.90
2018-10-18T20:55:47.478Z,82.30
2018-10-18T20:58:15.692Z,82.50
2018-10-18T21:00:43.960Z,82.80
2018-10-18T21:03:12.324Z,82.90
2018-10-18T21:05:40.558Z,82.80
2018-10-18T21:08:08.792Z,83.10
2018-10-18T21:10:37.073Z,83.40
2018-10-18T21:13:05.890Z,83.40
2018-10-18T21:15:34.136Z,83.80
2018-10-18T21:18:02.440Z,83.90
2018-10-18T21:20:30.627Z,84.00
2018-10-18T21:22:59.403Z,84.00
2018-10-18T21:25:27.709Z,84.60
2018-10-18T21:27:56.035Z,84.90
2018-10-18T21:30:24.258Z,84.90
2018-10-18T21:32:52.488Z,85.00
2018-10-18T21:35:20.744Z,85.20
2018-10-18T21:37:48.984Z,85.40
2018-10-18T21:40:17.269Z,85.70
2018-10-18T21:42:45.476Z,85.80
2018-10-18T21:45:14.193Z,86.00
2018-10-18T21:47:42.484Z,86.20
2018-10-18T21:50:10.820Z,86.40
2018-10-18T21:52:39.054Z,86.50
2018-10-18T21:55:07.628Z,86.80
2018-10-18T21:57:35.943Z,86.90
2018-10-18T22:00:05.496Z,87.10
2018-10-18T22:02:33.763Z,87.20
2018-10-18T22:05:02.126Z,87.20
2018-10-18T22:07:30.332Z,87.50
2018-10-18T22:09:58.572Z,87.80
2018-10-18T22:12:26.820Z,87.90
2018-10-18T22:14:55.078Z,88.70
2018-10-18T22:17:23.304Z,88.10
2018-10-18T22:19:51.547Z,88.20
2018-10-18T22:22:19.768Z,88.30
2018-10-18T22:24:48.144Z,88.40
2018-10-18T22:27:16.482Z,88.60
2018-10-18T22:29:44.706Z,89.00
2018-10-18T22:32:13.085Z,89.20
2018-10-18T22:34:41.616Z,89.50
2018-10-18T22:37:09.859Z,89.90
2018-10-18T22:39:38.096Z,90.00
2018-10-18T22:42:06.336Z,90.10
2018-10-18T22:44:34.597Z,90.10
2018-10-18T22:47:02.897Z,90.10
2018-10-18T22:49:31.092Z,90.20
2018-10-18T22:51:59.316Z,90.20
2018-10-18T22:54:27.685Z,90.20
2018-10-18T22:56:55.980Z,90.30
2018-10-18T22:59:24.202Z,90.30
2018-10-18T23:01:52.429Z,90.40
2018-10-18T23:04:20.685Z,90.40
2018-10-18T23:06:48.981Z,90.40
2018-10-18T23:09:17.510Z,90.40
2018-10-18T23:11:45.711Z,90.40
2018-10-18T23:14:13.952Z,90.50
2018-10-18T23:16:42.188Z,90.40
2018-10-18T23:19:10.645Z,90.50
2018-10-18T23:21:39.005Z,90.60
2018-10-18T23:24:07.448Z,90.70
2018-10-18T23:26:35.716Z,90.70
2018-10-18T23:29:04.057Z,90.70
2018-10-18T23:31:32.257Z,90.60
2018-10-18T23:34:00.519Z,90.70
2018-10-18T23:36:28.740Z,90.70
2018-10-18T23:38:57.000Z,90.80
2018-10-18T23:41:25.228Z,90.80
2018-10-18T23:43:53.477Z,91.00
2018-10-18T23:46:21.738Z,91.10
2018-10-18T23:48:49.986Z,91.50
2018-10-18T23:51:18.306Z,91.50
2018-10-18T23:53:46.617Z,91.10
2018-10-18T23:56:14.839Z,91.20
2018-10-18T23:58:43.097Z,91.30
